createdAt,value
2018-07-13T00:01:22.215Z,100819.62
2018-07-13T00:03:51.879Z,100817.23
2018-07-13T00:06:20.079Z,100783.33
2018-07-13T00:08:48.191Z,100821.36
2018-07-13T00:11:16.256Z,100820.14
2018-07-13T00:14:24.512Z,100824.05
2018-07-13T00:16:53.950Z,100829.34
2018-07-13T00:19:22.963Z,100826.91
2018-07-13T00:21:51.887Z,100825.64
2018-07-13T00:24:20.781Z,100828.55
2018-07-13T00:26:49.025Z,100825.94
2018-07-13T00:29:17.256Z,100831.67
2018-07-13T00:31:45.623Z,100825.66
2018-07-13T00:34:13.683Z,100827.23
2018-07-13T00:36:41.887Z,100828.53
2018-07-13T00:39:11.625Z,100826.52
2018-07-13T00:41:39.675Z,100829.46
2018-07-13T00:44:08.196Z,100824.66
2018-07-13T00:46:36.236Z,100837.11
2018-07-13T00:49:04.346Z,100834.09
2018-07-13T00:51:32.500Z,100831.20
2018-07-13T00:54:00.794Z,100833.73
2018-07-13T00:56:29.049Z,100834.26
2018-07-13T00:58:57.245Z,100837.59
2018-07-13T01:01:25.275Z,100834.93
2018-07-13T01:03:53.356Z,100837.65
2018-07-13T01:06:21.412Z,100833.20
2018-07-13T01:08:49.467Z,100832.95
2018-07-13T01:11:17.553Z,100834.70
2018-07-13T01:13:45.591Z,100835.25
2018-07-13T01:16:13.808Z,100834.61
2018-07-13T01:18:41.871Z,100835.58
2018-07-13T01:21:09.919Z,100830.37
2018-07-13T01:23:38.098Z,100835.58
2018-07-13T01:26:06.174Z,100831.41
2018-07-13T01:28:34.383Z,100832.57
2018-07-13T01:31:02.799Z,100836.52
2018-07-13T01:33:30.860Z,100838.07
2018-07-13T01:35:58.931Z,100842.40
2018-07-13T01:38:27.403Z,100838.98
2018-07-13T01:40:55.451Z,100843.02
2018-07-13T01:43:23.514Z,100831.81
2018-07-13T01:45:51.744Z,100838.30
2018-07-13T01:48:20.387Z,100836.49
2018-07-13T01:50:48.979Z,100835.62
2018-07-13T01:53:17.114Z,100833.81
2018-07-13T01:55:45.217Z,100843.81
2018-07-13T01:58:13.208Z,100846.69
2018-07-13T02:00:41.706Z,100843.26
2018-07-13T02:03:09.776Z,100846.13
2018-07-13T02:05:37.842Z,100841.95
2018-07-13T02:08:06.021Z,100846.77
2018-07-13T02:10:34.083Z,100845.23
2018-07-13T02:13:02.127Z,100841.88
2018-07-13T02:15:30.207Z,100843.26
2018-07-13T02:17:58.416Z,100843.10
2018-07-13T02:20:26.807Z,100845.95
2018-07-13T02:22:55.003Z,100848.79
2018-07-13T02:25:23.323Z,100848.66
2018-07-13T02:27:51.843Z,100847.37
2018-07-13T02:30:20.252Z,100842.92
2018-07-13T02:32:48.929Z,100844.20
2018-07-13T02:35:17.070Z,100838.55
2018-07-13T02:37:46.263Z,100845.11
2018-07-13T02:40:14.487Z,100839.98
2018-07-13T02:42:42.535Z,100839.98
2018-07-13T02:45:10.847Z,100842.56
2018-07-13T02:47:38.933Z,100847.53
2018-07-13T02:50:07.029Z,100849.12
2018-07-13T02:52:35.181Z,100850.50
2018-07-13T02:55:03.278Z,100850.95
2018-07-13T02:57:31.377Z,100854.16
2018-07-13T02:59:59.545Z,100853.41
2018-07-13T03:02:27.576Z,100855.22
2018-07-13T03:04:55.632Z,100859.84
2018-07-13T03:07:23.720Z,100858.64
2018-07-13T03:09:51.771Z,100863.84
2018-07-13T03:15:10.076Z,100869.23
2018-07-13T03:17:38.117Z,100869.43
2018-07-13T03:20:06.152Z,100866.66
2018-07-13T03:22:34.197Z,100869.66
2018-07-13T03:25:02.271Z,100876.66
2018-07-13T03:27:30.327Z,100880.44
2018-07-13T03:29:58.439Z,100884.48
2018-07-13T03:32:26.507Z,100882.92
2018-07-13T03:34:54.855Z,100884.31
2018-07-13T03:37:22.910Z,100878.28
2018-07-13T03:39:50.972Z,100881.91
2018-07-13T03:42:19.311Z,100882.94
2018-07-13T03:44:47.359Z,100885.72
2018-07-13T03:47:15.441Z,100883.23
2018-07-13T03:49:43.515Z,100884.33
2018-07-13T03:52:11.575Z,100888.14
2018-07-13T03:54:39.628Z,100889.75
2018-07-13T03:57:07.679Z,100900.55
2018-07-13T03:59:35.757Z,100891.88
2018-07-13T04:02:03.813Z,100891.95
2018-07-13T04:04:31.916Z,100894.56
2018-07-13T04:06:59.981Z,100899.16
2018-07-13T04:09:28.395Z,100897.24
2018-07-13T04:11:56.472Z,100897.88
2018-07-13T04:14:24.524Z,100897.14
2018-07-13T04:16:52.856Z,100899.39
2018-07-13T04:19:20.903Z,100894.48
2018-07-13T04:21:48.956Z,100895.31
2018-07-13T04:24:17.044Z,100888.84
2018-07-13T04:26:47.343Z,100898.05
2018-07-13T04:29:15.468Z,100891.59
2018-07-13T04:31:43.527Z,100894.84
2018-07-13T04:34:11.622Z,100893.06
2018-07-13T04:36:39.672Z,100897.87
2018-07-13T04:39:09.324Z,100901.94
2018-07-13T04:41:37.388Z,100900.66
2018-07-13T04:44:05.743Z,100895.27
2018-07-13T04:46:34.283Z,100897.43
2018-07-13T04:49:02.600Z,100897.87
2018-07-13T04:51:30.656Z,100897.87
2018-07-13T04:53:58.794Z,100898.66
2018-07-13T04:56:27.037Z,100897.98
2018-07-13T04:58:55.249Z,100906.14
2018-07-13T05:01:23.449Z,100908.36
2018-07-13T05:03:51.496Z,100908.14
2018-07-13T05:06:19.679Z,100907.89
2018-07-13T05:08:47.689Z,100909.64
2018-07-13T05:11:15.764Z,100904.83
2018-07-13T05:13:43.831Z,100915.95
2018-07-13T05:16:11.951Z,100915.95
2018-07-13T05:18:40.020Z,100916.25
2018-07-13T05:21:08.081Z,100911.59
2018-07-13T05:23:36.152Z,100907.36
2018-07-13T05:26:04.320Z,100912.45
2018-07-13T05:28:32.399Z,100911.16
2018-07-13T05:31:00.497Z,100908.20
2018-07-13T05:33:28.571Z,100904.31
2018-07-13T05:35:56.876Z,100908.41
2018-07-13T05:38:24.949Z,100913.48
2018-07-13T05:40:52.992Z,100915.09
2018-07-13T05:43:21.062Z,100915.81
2018-07-13T05:45:49.119Z,100912.84
2018-07-13T05:48:17.328Z,100919.86
2018-07-13T05:50:45.443Z,100917.70
2018-07-13T05:53:13.504Z,100918.45
2018-07-13T05:55:41.586Z,100920.99
2018-07-13T05:58:09.663Z,100922.42
2018-07-13T06:00:37.889Z,100925.84
2018-07-13T06:03:05.960Z,100931.18
2018-07-13T06:05:34.329Z,100931.37
2018-07-13T06:08:02.489Z,100933.07
2018-07-13T06:10:30.551Z,100926.83
2018-07-13T06:12:58.636Z,100930.59
2018-07-13T06:15:27.772Z,100937.83
2018-07-13T06:17:55.884Z,100940.03
2018-07-13T06:20:24.018Z,100939.05
2018-07-13T06:22:52.179Z,100947.95
2018-07-13T06:25:20.213Z,100947.62
2018-07-13T06:27:48.284Z,100949.06
2018-07-13T06:30:16.343Z,100950.33
2018-07-13T06:32:44.755Z,100949.60
2018-07-13T06:35:12.832Z,100952.61
2018-07-13T06:37:40.880Z,100949.47
2018-07-13T06:40:09.185Z,100944.38
2018-07-13T06:42:37.236Z,100945.85
2018-07-13T06:45:05.343Z,100938.64
2018-07-13T06:47:33.488Z,100946.69
2018-07-13T06:50:01.547Z,100948.52
2018-07-13T06:52:29.863Z,100944.20
2018-07-13T06:54:57.928Z,100946.19
2018-07-13T06:57:37.303Z,100950.87
2018-07-13T07:01:17.415Z,100946.67
2018-07-13T07:04:48.507Z,100954.59
2018-07-13T07:07:18.148Z,100958.16
2018-07-13T07:09:48.811Z,100964.93
2018-07-13T07:12:56.662Z,100969.23
2018-07-13T07:15:25.416Z,100971.62
2018-07-13T07:17:54.530Z,100975.25
2018-07-13T07:20:22.591Z,100967.64
2018-07-13T07:22:50.648Z,100968.09
2018-07-13T07:25:18.975Z,100965.27
2018-07-13T07:27:47.167Z,100962.47
2018-07-13T07:30:15.207Z,100967.56
2018-07-13T07:32:44.045Z,100968.61
2018-07-13T07:35:12.140Z,100967.69
2018-07-13T07:37:40.288Z,100962.11
2018-07-13T07:40:08.321Z,100962.14
2018-07-13T07:42:36.362Z,100962.54
2018-07-13T07:45:04.988Z,100963.45
2018-07-13T07:47:33.388Z,100962.36
2018-07-13T07:50:02.262Z,100962.03
2018-07-13T07:52:30.568Z,100970.78
2018-07-13T07:54:58.711Z,100976.59
2018-07-13T07:57:26.958Z,100973.22
2018-07-13T07:59:55.073Z,100975.66
2018-07-13T08:02:23.321Z,100975.70
2018-07-13T08:04:51.501Z,100973.48
2018-07-13T08:07:19.920Z,100977.84
2018-07-13T08:09:47.852Z,100976.89
2018-07-13T08:12:16.077Z,100973.78
2018-07-13T08:14:44.142Z,100975.76
2018-07-13T08:17:12.169Z,100976.63
2018-07-13T08:19:40.216Z,100974.25
2018-07-13T08:22:15.075Z,100977.66
2018-07-13T08:24:44.352Z,100978.20
2018-07-13T08:27:14.595Z,100976.85
2018-07-13T08:29:42.644Z,100975.05
2018-07-13T08:32:10.699Z,100981.56
2018-07-13T08:34:39.672Z,100980.19
2018-07-13T08:37:07.809Z,100982.89
2018-07-13T08:39:36.118Z,100983.58
2018-07-13T08:42:04.204Z,100986.83
2018-07-13T08:44:32.271Z,100989.64
2018-07-13T08:47:01.711Z,100982.22
2018-07-13T08:49:29.755Z,100987.76
2018-07-13T08:51:57.831Z,100956.86
2018-07-13T08:54:25.927Z,100987.42
2018-07-13T08:56:54.892Z,100990.00
2018-07-13T08:59:23.097Z,100988.95
2018-07-13T09:01:51.260Z,100982.85
2018-07-13T09:04:19.400Z,100989.22
2018-07-13T09:06:47.557Z,100986.94
2018-07-13T09:09:17.471Z,100989.77
2018-07-13T09:11:45.861Z,100992.22
2018-07-13T09:14:13.964Z,100988.25
2018-07-13T09:16:42.068Z,100988.27
2018-07-13T09:19:10.120Z,100988.30
2018-07-13T09:21:38.547Z,100986.09
2018-07-13T09:24:07.257Z,100990.44
2018-07-13T09:26:35.343Z,100992.39
2018-07-13T09:29:03.384Z,100990.06
2018-07-13T09:31:31.443Z,100993.05
2018-07-13T09:33:59.501Z,100989.88
2018-07-13T09:36:27.561Z,100991.83
2018-07-13T09:38:55.631Z,100989.39
2018-07-13T09:41:23.679Z,100988.64
2018-07-13T09:43:52.007Z,100989.88
2018-07-13T09:46:20.079Z,100996.86
2018-07-13T09:48:48.135Z,100992.03
2018-07-13T09:51:16.204Z,100993.83
2018-07-13T09:53:44.328Z,100989.56
2018-07-13T09:56:12.376Z,100991.16
2018-07-13T09:58:40.472Z,100989.94
2018-07-13T10:01:14.103Z,100997.28
2018-07-13T10:03:42.618Z,100990.34
2018-07-13T10:06:10.676Z,100995.42
2018-07-13T10:08:38.753Z,101001.58
2018-07-13T10:11:06.996Z,101000.42
2018-07-13T10:13:35.092Z,101001.45
2018-07-13T10:16:23.911Z,101000.41
2018-07-13T10:18:52.486Z,101006.86
2018-07-13T10:21:20.580Z,101003.02
2018-07-13T10:23:48.796Z,100999.58
2018-07-13T10:26:22.011Z,101007.57
2018-07-13T10:28:50.361Z,101009.75
2018-07-13T10:31:18.452Z,101007.11
2018-07-13T10:33:47.444Z,101001.66
2018-07-13T10:36:16.900Z,101002.66
2018-07-13T10:38:45.275Z,100992.50
2018-07-13T10:41:13.364Z,100996.59
2018-07-13T10:43:41.862Z,100998.78
2018-07-13T10:46:09.948Z,100986.98
2018-07-13T10:48:38.041Z,100990.97
2018-07-13T10:51:06.097Z,100988.33
2018-07-13T10:53:34.428Z,100991.03
2018-07-13T10:56:02.512Z,100989.23
2018-07-13T10:58:30.647Z,100980.86
2018-07-13T11:00:58.843Z,100987.89
2018-07-13T11:03:26.987Z,100987.60
2018-07-13T11:05:55.412Z,100987.64
2018-07-13T11:08:24.003Z,100989.63
2018-07-13T11:10:52.265Z,100991.66
2018-07-13T11:13:20.696Z,100985.77
2018-07-13T11:15:49.003Z,100978.66
2018-07-13T11:18:17.063Z,100978.97
2018-07-13T11:20:45.172Z,100970.24
2018-07-13T11:23:13.240Z,100979.34
2018-07-13T11:25:41.315Z,100974.17
2018-07-13T11:28:09.544Z,100969.66
2018-07-13T11:30:37.620Z,100970.36
2018-07-13T11:33:06.616Z,100972.33
2018-07-13T11:35:34.716Z,100965.81
2018-07-13T11:38:02.782Z,100971.20
2018-07-13T11:40:31.008Z,100968.47
2018-07-13T11:42:59.216Z,100958.49
2018-07-13T11:45:27.437Z,100960.46
2018-07-13T11:47:55.591Z,100952.64
2018-07-13T11:50:23.913Z,100961.91
2018-07-13T11:52:52.214Z,100953.54
2018-07-13T11:55:20.389Z,100960.48
2018-07-13T11:57:48.645Z,100957.91
2018-07-13T12:00:16.740Z,100947.30
2018-07-13T12:02:44.783Z,100955.89
2018-07-13T12:05:12.825Z,100942.00
2018-07-13T12:07:41.011Z,100947.70
2018-07-13T12:10:08.995Z,100943.95
2018-07-13T12:12:37.071Z,100946.16
2018-07-13T12:15:05.144Z,100941.22
2018-07-13T12:17:33.268Z,100935.65
2018-07-13T12:20:01.302Z,100939.52
2018-07-13T12:22:29.390Z,100930.97
2018-07-13T12:24:57.448Z,100927.33
2018-07-13T12:27:25.501Z,100929.95
2018-07-13T12:29:53.581Z,100925.53
2018-07-13T12:32:22.500Z,100924.89
2018-07-13T12:34:50.531Z,100926.17
2018-07-13T12:37:18.687Z,100920.90
2018-07-13T12:39:46.808Z,100914.49
2018-07-13T12:42:14.897Z,100908.61
2018-07-13T12:44:42.917Z,100910.56
2018-07-13T12:47:10.968Z,100900.34
2018-07-13T12:49:39.012Z,100904.13
2018-07-13T12:52:07.628Z,100901.31
2018-07-13T12:54:35.715Z,100903.53
2018-07-13T12:57:03.744Z,100907.87
2018-07-13T12:59:31.917Z,100905.19
2018-07-13T13:01:59.909Z,100909.85
2018-07-13T13:04:27.995Z,100896.36
2018-07-13T13:06:56.482Z,100899.13
2018-07-13T13:09:24.504Z,100896.90
2018-07-13T13:11:52.556Z,100903.67
2018-07-13T13:14:21.324Z,100898.62
2018-07-13T13:16:49.431Z,100891.50
2018-07-13T13:19:17.508Z,100891.20
2018-07-13T13:21:45.783Z,100882.13
2018-07-13T13:24:13.764Z,100884.05
2018-07-13T13:26:41.824Z,100893.24
2018-07-13T13:29:09.908Z,100886.06
2018-07-13T13:31:38.281Z,100884.83
2018-07-13T13:34:06.362Z,100885.86
2018-07-13T13:36:35.516Z,100889.51
2018-07-13T13:39:04.085Z,100887.34
2018-07-13T13:41:32.336Z,100888.41
2018-07-13T13:44:00.774Z,100880.98
2018-07-13T13:46:29.233Z,100882.05
2018-07-13T13:48:57.550Z,100880.83
2018-07-13T13:51:26.273Z,100880.29
2018-07-13T13:53:54.905Z,100883.58
2018-07-13T13:56:23.384Z,100881.25
2018-07-13T13:58:52.028Z,100881.28
2018-07-13T14:01:20.425Z,100877.86
2018-07-13T14:03:48.931Z,100874.84
2018-07-13T14:06:17.051Z,100878.05
2018-07-13T14:08:45.186Z,100877.75
2018-07-13T14:11:13.479Z,100867.55
2018-07-13T14:13:42.008Z,100874.08
2018-07-13T14:16:10.047Z,100868.61
2018-07-13T14:18:38.116Z,100862.05
2018-07-13T14:21:06.615Z,100872.65
2018-07-13T14:23:34.707Z,100870.37
2018-07-13T14:26:02.808Z,100863.10
2018-07-13T14:28:31.173Z,100864.13
2018-07-13T14:30:59.221Z,100868.16
2018-07-13T14:33:27.300Z,100870.89
2018-07-13T14:35:55.405Z,100860.02
2018-07-13T14:38:23.549Z,100863.05
2018-07-13T14:40:52.112Z,100864.30
2018-07-13T14:43:21.293Z,100862.88
2018-07-13T14:45:49.573Z,100854.77
2018-07-13T14:48:17.604Z,100855.31
2018-07-13T14:50:45.680Z,100863.16
2018-07-13T14:53:13.724Z,100853.99
2018-07-13T14:55:41.759Z,100852.56
2018-07-13T14:58:09.808Z,100854.84
2018-07-13T15:00:37.859Z,100849.95
2018-07-13T15:03:06.015Z,100846.05
2018-07-13T15:05:34.156Z,100840.00
2018-07-13T15:08:02.411Z,100841.68
2018-07-13T15:10:30.726Z,100843.32
2018-07-13T15:12:59.049Z,100837.64
2018-07-13T15:15:27.319Z,100831.27
2018-07-13T15:17:56.276Z,100827.39
2018-07-13T15:20:24.784Z,100833.83
2018-07-13T15:22:53.553Z,100834.81
2018-07-13T15:25:22.848Z,100832.55
2018-07-13T15:27:51.470Z,100835.70
2018-07-13T15:30:20.511Z,100830.26
2018-07-13T15:32:48.615Z,100832.47
2018-07-13T15:35:16.966Z,100834.66
2018-07-13T15:37:45.040Z,100830.25
2018-07-13T15:40:13.208Z,100836.27
2018-07-13T15:42:41.275Z,100830.06
2018-07-13T15:45:09.716Z,100827.25
2018-07-13T15:47:37.782Z,100829.02
2018-07-13T15:50:05.842Z,100825.47
2018-07-13T15:52:34.037Z,100825.84
2018-07-13T15:55:02.440Z,100832.81
2018-07-13T15:57:30.776Z,100823.02
2018-07-13T15:59:59.185Z,100831.66
2018-07-13T16:02:27.627Z,100826.39
2018-07-13T16:04:55.885Z,100821.88
2018-07-13T16:07:24.788Z,100820.84
2018-07-13T16:09:53.395Z,100825.31
2018-07-13T16:12:23.070Z,100820.52
2018-07-13T16:14:52.145Z,100819.16
2018-07-13T16:17:21.108Z,100819.85
2018-07-13T16:19:49.549Z,100818.27
2018-07-13T16:22:17.713Z,100814.39
2018-07-13T16:24:45.879Z,100814.81
2018-07-13T16:27:13.961Z,100814.74
2018-07-13T16:29:42.088Z,100819.24
2018-07-13T16:32:10.331Z,100815.78
2018-07-13T16:34:38.466Z,100812.98
2018-07-13T16:37:06.591Z,100811.40
2018-07-13T16:39:34.891Z,100810.84
2018-07-13T16:42:03.028Z,100799.02
2018-07-13T16:44:31.313Z,100809.05
2018-07-13T16:46:59.373Z,100797.94
2018-07-13T16:49:27.411Z,100800.78
2018-07-13T16:51:55.560Z,100805.52
2018-07-13T16:54:23.743Z,100805.78
2018-07-13T16:56:51.776Z,100804.16
2018-07-13T16:59:19.843Z,100801.86
2018-07-13T17:01:47.920Z,100803.28
2018-07-13T17:04:16.047Z,100804.78
2018-07-13T17:06:44.112Z,100807.16
2018-07-13T17:09:12.541Z,100802.23
2018-07-13T17:11:40.928Z,100806.36
2018-07-13T17:14:08.978Z,100799.92
2018-07-13T17:16:37.053Z,100804.34
2018-07-13T17:19:05.167Z,100801.86
2018-07-13T17:21:33.816Z,100795.70
2018-07-13T17:24:02.152Z,100802.81
2018-07-13T17:26:30.953Z,100802.39
2018-07-13T17:28:59.769Z,100802.38
2018-07-13T17:31:28.515Z,100801.52
2018-07-13T17:33:57.569Z,100794.80
2018-07-13T17:36:26.608Z,100801.66
2018-07-13T17:38:55.369Z,100794.27
2018-07-13T17:41:24.434Z,100794.23
2018-07-13T17:43:52.485Z,100797.59
2018-07-13T17:46:20.585Z,100795.56
2018-07-13T17:48:48.636Z,100791.26
2018-07-13T17:51:16.712Z,100793.81
2018-07-13T17:53:44.767Z,100795.03
2018-07-13T17:56:12.848Z,100790.88
2018-07-13T17:58:40.932Z,100795.48
2018-07-13T18:01:09.243Z,100799.00
2018-07-13T18:03:37.378Z,100794.39
2018-07-13T18:06:05.684Z,100794.23
2018-07-13T18:08:33.904Z,100797.39
2018-07-13T18:11:02.006Z,100791.14
2018-07-13T18:13:30.130Z,100790.49
2018-07-13T18:15:58.220Z,100786.72
2018-07-13T18:18:26.259Z,100788.47
2018-07-13T18:20:54.402Z,100785.30
2018-07-13T18:23:22.487Z,100787.77
2018-07-13T18:25:50.550Z,100788.90
2018-07-13T18:28:18.654Z,100784.13
2018-07-13T18:30:46.914Z,100790.70
2018-07-13T18:33:15.052Z,100791.30
2018-07-13T18:35:43.099Z,100791.08
2018-07-13T18:38:11.152Z,100795.56
2018-07-13T18:40:39.221Z,100797.48
2018-07-13T18:43:07.271Z,100800.27
2018-07-13T18:45:35.414Z,100800.74
2018-07-13T18:48:03.672Z,100797.58
2018-07-13T18:50:32.180Z,100798.08
2018-07-13T18:53:00.400Z,100798.84
2018-07-13T18:55:28.687Z,100791.02
2018-07-13T18:57:57.539Z,100804.48
2018-07-13T19:00:26.295Z,100799.97
2018-07-13T19:02:54.369Z,100802.42
2018-07-13T19:05:22.736Z,100810.81
2018-07-13T19:07:50.803Z,100811.67
2018-07-13T19:10:18.889Z,100812.14
2018-07-13T19:12:46.939Z,100817.20
2018-07-13T19:15:14.998Z,100821.06
2018-07-13T19:17:43.044Z,100820.56
2018-07-13T19:20:11.104Z,100816.61
2018-07-13T19:22:39.232Z,100829.39
2018-07-13T19:25:07.182Z,100825.27
2018-07-13T19:27:35.231Z,100826.96
2018-07-13T19:30:03.257Z,100823.32
2018-07-13T19:32:31.575Z,100825.02
2018-07-13T19:34:59.638Z,100823.73
2018-07-13T19:37:27.728Z,100826.21
2018-07-13T19:39:55.780Z,100824.28
2018-07-13T19:42:23.999Z,100831.39
2018-07-13T19:44:52.406Z,100827.05
2018-07-13T19:47:20.448Z,100829.94
2018-07-13T19:49:48.489Z,100833.45
2018-07-13T19:52:16.537Z,100839.94
2018-07-13T19:54:44.811Z,100839.17
2018-07-13T19:57:12.953Z,100850.67
2018-07-13T19:59:40.960Z,100856.17
2018-07-13T20:02:09.139Z,100853.26
2018-07-13T20:04:37.456Z,100854.35
2018-07-13T20:07:05.837Z,100860.82
2018-07-13T20:09:34.268Z,100863.52
2018-07-13T20:12:02.407Z,100869.36
2018-07-13T20:14:30.557Z,100870.06
2018-07-13T20:16:58.964Z,100878.35
2018-07-13T20:19:27.033Z,100878.39
2018-07-13T20:21:55.733Z,100882.84
2018-07-13T20:24:24.001Z,100882.13
2018-07-13T20:26:52.212Z,100888.36
2018-07-13T20:29:20.487Z,100902.21
2018-07-13T20:31:48.551Z,100897.67
2018-07-13T20:34:17.003Z,100910.48
2018-07-13T20:36:45.127Z,100906.50
2018-07-13T20:39:13.687Z,100912.16
2018-07-13T20:41:41.776Z,100919.17
2018-07-13T20:44:09.863Z,100916.59
2018-07-13T20:46:38.059Z,100923.00
2018-07-13T20:49:06.111Z,100918.64
2018-07-13T20:51:34.269Z,100919.45
2018-07-13T20:54:02.317Z,100921.48
2018-07-13T20:56:30.814Z,100930.69
2018-07-13T20:58:59.018Z,100930.52
2018-07-13T21:01:27.150Z,100924.53
2018-07-13T21:03:55.542Z,100931.52
2018-07-13T21:06:23.798Z,100930.72
2018-07-13T21:08:52.398Z,100933.89
2018-07-13T21:11:20.604Z,100928.11
2018-07-13T21:13:48.698Z,100938.30
2018-07-13T21:16:16.756Z,100939.68
2018-07-13T21:18:46.318Z,100935.48
2018-07-13T21:21:14.408Z,100936.31
2018-07-13T21:23:42.468Z,100931.31
2018-07-13T21:26:10.812Z,100928.11
2018-07-13T21:28:39.218Z,100937.88
2018-07-13T21:31:07.291Z,100931.48
2018-07-13T21:33:35.447Z,100926.09
2018-07-13T21:36:03.972Z,100928.28
2018-07-13T21:38:32.159Z,100931.23
2018-07-13T21:41:00.280Z,100940.92
2018-07-13T21:43:28.676Z,100942.34
2018-07-13T21:45:56.911Z,100954.89
2018-07-13T21:48:25.230Z,100952.30
2018-07-13T21:50:53.532Z,100951.08
2018-07-13T21:53:21.962Z,100956.03
2018-07-13T21:55:50.299Z,100962.77
2018-07-13T21:58:18.416Z,100953.77
2018-07-13T22:00:46.479Z,100954.37
2018-07-13T22:03:14.553Z,100954.32
2018-07-13T22:05:42.604Z,100957.67
2018-07-13T22:08:10.800Z,100953.87
2018-07-13T22:10:39.024Z,100957.84
2018-07-13T22:13:07.107Z,100954.01
2018-07-13T22:15:35.339Z,100952.56
2018-07-13T22:20:30.579Z,100954.95
2018-07-13T22:22:58.625Z,100958.27
2018-07-13T22:25:26.692Z,100961.58
2018-07-13T22:27:54.747Z,100961.33
2018-07-13T22:30:22.783Z,100965.67
2018-07-13T22:32:50.909Z,100968.38
2018-07-13T22:35:18.980Z,100966.15
2018-07-13T22:37:47.050Z,100962.55
2018-07-13T22:40:15.253Z,100969.70
2018-07-13T22:42:43.343Z,100971.64
2018-07-13T22:45:11.900Z,100977.14
2018-07-13T22:47:40.089Z,100979.30
2018-07-13T22:50:08.191Z,100987.03
2018-07-13T22:52:36.276Z,100980.20
2018-07-13T22:55:04.382Z,100987.13
2018-07-13T22:57:32.453Z,100981.10
2018-07-13T23:00:00.626Z,100977.88
2018-07-13T23:02:28.621Z,100983.04
2018-07-13T23:04:56.704Z,100980.97
2018-07-13T23:07:24.785Z,100976.72
2018-07-13T23:09:52.847Z,100980.88
2018-07-13T23:12:20.899Z,100985.02
2018-07-13T23:14:48.963Z,100969.43
2018-07-13T23:17:17.015Z,100975.30
2018-07-13T23:19:45.138Z,100973.09
2018-07-13T23:22:13.210Z,100972.45
2018-07-13T23:24:41.307Z,100977.16
2018-07-13T23:27:09.537Z,100979.70
2018-07-13T23:29:37.601Z,100984.01
2018-07-13T23:32:05.773Z,100977.00
2018-07-13T23:34:33.860Z,100981.70
2018-07-13T23:37:02.064Z,100978.63
2018-07-13T23:39:30.188Z,100984.53
2018-07-13T23:41:58.296Z,100989.77
2018-07-13T23:44:26.763Z,100973.63
2018-07-13T23:46:54.941Z,100977.99
2018-07-13T23:49:23.239Z,100974.80
2018-07-13T23:51:51.432Z,100972.17
2018-07-13T23:54:19.572Z,100973.52
2018-07-13T23:56:47.971Z,100971.70
2018-07-13T23:59:16.130Z,100973.63
